Overview Statistics Trail Chart Weather Telemetry Raw packets
 

This is the latest recevied weather packets stored in our database for station/object VE3CGR-6. If no packets are shown the sender has not sent any weather packets the latest 10 day(s).

<< 21 22 23 24 25 26 27 >>
Time Temp. Humidity Pressure Rain* Wind** Luminosity Snow
1788294631 27.22° C 79% 1015.1 hPa 0 mm - - -
1788294018 27.22° C 79% 1015.2 hPa 0 mm - - -
1788293418 27.22° C 80% 1015.3 hPa 0 mm - - -
1788292818 27.22° C 80% 1015.4 hPa 0 mm - - -
1788292218 27.78° C 78% 1015.4 hPa 0 mm - - -
1788291618 27.78° C 79% 1015.3 hPa 0 mm - - -
1788291018 27.78° C 78% 1015.4 hPa 0 mm - - -
1788290418 27.78° C 80% 1015.5 hPa 0 mm - - -
1788289818 26.67° C 83% 1015.5 hPa 0 mm - - -
1788289218 26.11° C 83% 1015.4 hPa 0 mm - - -
1788288618 26.11° C 84% 1015.6 hPa 0 mm - - -
1788288018 25.56° C 84% 1015.7 hPa 0 mm - - -
1788287418 25.56° C 84% 1015.6 hPa 0 mm - - -
1788286818 25.56° C 84% 1015.5 hPa 0 mm - - -
1788286218 26.11° C 83% 1015.4 hPa 0 mm - - -
1788285618 25.56° C 84% 1015.2 hPa 0 mm - - -
1788285018 25.56° C 85% 1015.1 hPa 0 mm - - -
1788284418 25° C 85% 1015 hPa 0 mm - - -
1788283818 25° C 86% 1015 hPa 0 mm - - -
1788283218 25° C 85% 1015 hPa 0 mm - - -
1788282618 25.56° C 85% 1015.1 hPa 0 mm - - -
1788282018 25.56° C 85% 1015 hPa 0 mm - - -
1788281418 25° C 85% 1015 hPa 0 mm - - -
1788280818 25.56° C 85% 1015.1 hPa 0 mm - - -
1788280218 25.56° C 84% 1015.2 hPa 0 mm - - -

* Rain latest hour (hover to see other rain measurements)
** Current wind speed in m/s (hover to see current wind gust speed)